createdAt,value
2022-08-07T00:00:26.094Z,51.10
2022-08-07T00:02:55.983Z,50.73
2022-08-07T00:05:25.642Z,49.79
2022-08-07T00:08:00.318Z,52.50
2022-08-07T00:10:30.624Z,55.87
2022-08-07T00:13:03.230Z,56.99
2022-08-07T00:15:46.727Z,56.65
2022-08-07T00:18:24.855Z,55.44
2022-08-07T00:20:56.744Z,60.00
2022-08-07T00:23:28.430Z,65.22
2022-08-07T00:26:00.245Z,61.34
2022-08-07T00:28:33.733Z,57.79
2022-08-07T00:31:12.435Z,55.33
2022-08-07T00:33:41.822Z,55.06
2022-08-07T00:36:11.253Z,57.84
2022-08-07T00:38:40.253Z,62.12
2022-08-07T00:41:09.935Z,59.13
2022-08-07T00:44:01.309Z,61.22
2022-08-07T00:46:33.172Z,59.97
2022-08-07T00:49:03.151Z,61.33
2022-08-07T00:51:57.561Z,64.59
2022-08-07T00:54:20.558Z,59.63
2022-08-07T00:56:51.290Z,58.46
2022-08-07T00:59:32.667Z,56.92
2022-08-07T01:02:06.375Z,59.95
2022-08-07T01:04:43.255Z,60.19
2022-08-07T01:07:12.935Z,62.85
2022-08-07T01:10:04.730Z,64.91
2022-08-07T01:12:31.063Z,62.51
2022-08-07T01:15:03.862Z,65.50
2022-08-07T01:17:33.068Z,62.16
2022-08-07T01:20:06.522Z,61.45
2022-08-07T01:22:37.813Z,59.89
2022-08-07T01:25:53.945Z,62.52
2022-08-07T01:28:03.888Z,71.40
2022-08-07T01:30:32.407Z,62.57
2022-08-07T01:33:00.576Z,58.43
2022-08-07T01:35:37.001Z,63.13
2022-08-07T01:38:24.863Z,59.57
2022-08-07T01:40:59.339Z,60.21
2022-08-07T01:43:37.988Z,60.72
2022-08-07T01:46:08.187Z,65.24
2022-08-07T01:48:46.580Z,69.74
2022-08-07T01:52:01.986Z,62.34
2022-08-07T01:54:21.994Z,66.23
2022-08-07T01:57:04.420Z,72.21
2022-08-07T01:59:37.893Z,67.62
2022-08-07T02:02:32.752Z,71.33
2022-08-07T02:05:07.863Z,68.95
2022-08-07T02:07:51.616Z,67.79
2022-08-07T02:10:35.072Z,62.93
2022-08-07T02:13:07.773Z,62.60
2022-08-07T02:15:48.336Z,65.69
2022-08-07T02:18:22.596Z,72.32
2022-08-07T02:20:57.479Z,76.55
2022-08-07T02:23:26.840Z,76.23
2022-08-07T02:26:26.624Z,66.63
2022-08-07T02:28:45.075Z,60.86
2022-08-07T02:31:28.171Z,64.11
2022-08-07T02:34:03.038Z,67.84
2022-08-07T02:36:35.225Z,78.83
2022-08-07T02:39:17.046Z,74.32
2022-08-07T02:42:00.677Z,72.26
2022-08-07T02:44:34.774Z,69.04
2022-08-07T02:47:06.911Z,66.08
2022-08-07T02:49:56.356Z,70.01
2022-08-07T02:52:32.252Z,77.01
2022-08-07T02:55:04.489Z,79.91
2022-08-07T02:57:46.734Z,83.72
2022-08-07T03:00:18.334Z,85.87
2022-08-07T03:02:54.651Z,85.03
2022-08-07T03:05:24.964Z,86.48
2022-08-07T03:08:07.971Z,81.94
2022-08-07T03:10:46.192Z,71.35
2022-08-07T03:13:19.272Z,72.39
2022-08-07T03:15:56.290Z,77.70
2022-08-07T03:18:34.834Z,77.02
2022-08-07T03:21:08.524Z,86.10
2022-08-07T03:24:21.039Z,86.15
2022-08-07T03:26:32.032Z,74.01
2022-08-07T03:29:05.159Z,84.10
2022-08-07T03:31:42.430Z,84.58
2022-08-07T03:34:18.893Z,86.37
2022-08-07T03:36:53.685Z,79.06
2022-08-07T03:39:59.463Z,83.93
2022-08-07T03:42:12.730Z,76.53
2022-08-07T03:44:43.279Z,69.42
2022-08-07T03:47:25.565Z,69.57
2022-08-07T03:49:57.008Z,81.10
2022-08-07T03:52:29.244Z,90.11
2022-08-07T03:55:06.712Z,90.31
2022-08-07T03:58:32.442Z,91.28
2022-08-07T04:00:33.802Z,100.00
2022-08-07T04:03:04.774Z,93.97
2022-08-07T04:05:40.925Z,100.00
2022-08-07T04:08:16.039Z,88.69
2022-08-07T04:10:54.090Z,78.09
2022-08-07T04:14:33.269Z,74.10
2022-08-07T04:16:31.149Z,78.95
2022-08-07T04:19:15.191Z,77.90
2022-08-07T04:22:04.909Z,75.37
2022-08-07T04:24:41.183Z,73.69
2022-08-07T04:27:15.130Z,69.26
2022-08-07T04:30:01.588Z,67.01
2022-08-07T04:32:44.844Z,65.16
2022-08-07T04:35:16.905Z,63.34
2022-08-07T04:38:03.092Z,69.16
2022-08-07T04:40:34.768Z,68.61
2022-08-07T04:43:03.593Z,66.42
2022-08-07T04:45:54.946Z,63.22
2022-08-07T04:49:02.707Z,58.32
2022-08-07T04:51:50.027Z,59.87
2022-08-07T04:54:30.181Z,59.47
2022-08-07T04:58:16.822Z,58.87
2022-08-07T05:00:11.889Z,55.98
2022-08-07T05:02:50.087Z,51.63
2022-08-07T05:05:53.447Z,53.15
2022-08-07T05:08:17.929Z,51.81
2022-08-07T05:11:11.904Z,52.71
2022-08-07T05:14:52.900Z,50.29
2022-08-07T05:16:44.159Z,49.83
2022-08-07T05:19:16.249Z,48.00
2022-08-07T05:22:00.270Z,50.32
2022-08-07T05:24:39.516Z,49.35
2022-08-07T05:28:02.995Z,48.99
2022-08-07T05:30:04.517Z,47.05
2022-08-07T05:32:33.741Z,48.41
2022-08-07T05:35:03.703Z,48.32
2022-08-07T05:37:40.754Z,47.73
2022-08-07T05:40:17.670Z,47.03
2022-08-07T05:42:56.053Z,45.16
2022-08-07T05:45:47.027Z,45.90
2022-08-07T05:48:15.258Z,45.64
2022-08-07T05:50:46.305Z,43.96
2022-08-07T05:54:09.608Z,43.40
2022-08-07T05:56:07.443Z,43.04
2022-08-07T05:58:41.941Z,42.47
2022-08-07T06:01:23.180Z,41.64
2022-08-07T06:03:58.662Z,40.79
2022-08-07T06:06:36.714Z,40.40
2022-08-07T06:09:10.282Z,40.05
2022-08-07T06:11:43.107Z,39.46
2022-08-07T06:14:21.412Z,38.84
2022-08-07T06:16:59.282Z,38.86
2022-08-07T06:19:52.107Z,38.13
2022-08-07T06:22:24.141Z,37.70
2022-08-07T06:25:06.087Z,37.78
2022-08-07T06:28:00.137Z,38.94
2022-08-07T06:30:35.640Z,37.39
2022-08-07T06:33:16.597Z,37.05
2022-08-07T06:35:49.240Z,36.43
2022-08-07T06:38:38.164Z,37.13
2022-08-07T06:41:12.950Z,37.50
2022-08-07T06:43:46.123Z,37.74
2022-08-07T06:46:20.396Z,36.78
2022-08-07T06:49:00.105Z,36.14
2022-08-07T06:51:35.179Z,35.76
2022-08-07T06:55:32.413Z,34.43
2022-08-07T06:57:09.726Z,33.23
2022-08-07T07:00:13.791Z,34.76
2022-08-07T07:02:53.431Z,33.42
2022-08-07T07:06:02.681Z,34.25
2022-08-07T07:08:18.482Z,33.65
2022-08-07T07:10:56.757Z,33.02
2022-08-07T07:13:55.789Z,32.53
2022-08-07T07:16:21.914Z,34.18
2022-08-07T07:18:51.622Z,34.67
2022-08-07T07:21:22.013Z,32.46
2022-08-07T07:24:09.034Z,32.65
2022-08-07T07:26:41.756Z,35.26
2022-08-07T07:29:55.949Z,33.17
2022-08-07T07:32:14.322Z,32.04
2022-08-07T07:34:45.570Z,31.14
2022-08-07T07:37:45.397Z,31.81
2022-08-07T07:40:10.438Z,31.13
2022-08-07T07:42:47.137Z,30.83
2022-08-07T07:45:24.531Z,30.41
2022-08-07T07:48:11.973Z,31.01
2022-08-07T07:51:00.455Z,30.41
2022-08-07T07:53:34.848Z,29.55
2022-08-07T07:56:08.310Z,34.22
2022-08-07T07:58:40.948Z,32.26
2022-08-07T08:02:03.251Z,31.01
2022-08-07T08:04:09.456Z,31.40
2022-08-07T08:06:40.724Z,30.58
2022-08-07T08:09:23.068Z,31.41
2022-08-07T08:12:02.138Z,30.81
2022-08-07T08:14:31.711Z,31.42
2022-08-07T08:17:56.563Z,31.84
2022-08-07T08:20:19.385Z,30.05
2022-08-07T08:22:58.711Z,31.33
2022-08-07T08:25:49.384Z,29.71
2022-08-07T08:28:24.025Z,31.58
2022-08-07T08:31:14.854Z,30.80
2022-08-07T08:33:50.096Z,29.69
2022-08-07T08:36:30.061Z,29.40
2022-08-07T08:39:02.173Z,30.52
2022-08-07T08:41:56.959Z,32.03
2022-08-07T08:44:31.485Z,33.22
2022-08-07T08:47:07.696Z,31.58
2022-08-07T08:49:46.863Z,30.93
2022-08-07T08:52:36.179Z,32.78
2022-08-07T08:55:21.029Z,32.46
2022-08-07T08:58:13.063Z,33.99
2022-08-07T09:00:48.400Z,33.80
2022-08-07T09:03:47.419Z,35.34
2022-08-07T09:06:21.241Z,32.61
2022-08-07T09:08:58.033Z,31.77
2022-08-07T09:11:43.539Z,32.50
2022-08-07T09:14:29.704Z,32.64
2022-08-07T09:17:02.092Z,32.40
2022-08-07T09:19:52.922Z,31.53
2022-08-07T09:24:30.376Z,30.49
2022-08-07T09:25:41.303Z,30.59
2022-08-07T09:30:02.066Z,30.92
2022-08-07T09:31:09.396Z,30.62
2022-08-07T09:33:56.803Z,30.55
2022-08-07T09:36:35.388Z,29.49
2022-08-07T09:39:53.988Z,28.79
2022-08-07T09:42:07.720Z,28.75
2022-08-07T09:45:40.010Z,26.31
2022-08-07T09:47:58.263Z,28.06
2022-08-07T09:50:37.539Z,28.98
2022-08-07T09:53:12.586Z,28.17
2022-08-07T09:56:03.206Z,26.92
2022-08-07T09:58:52.374Z,27.23
2022-08-07T10:01:50.997Z,26.93
2022-08-07T10:04:33.343Z,26.80
2022-08-07T10:07:24.358Z,25.40
2022-08-07T10:10:06.996Z,25.49
2022-08-07T10:13:05.900Z,28.47
2022-08-07T10:15:51.348Z,27.50
2022-08-07T10:18:35.417Z,28.02
2022-08-07T10:21:50.524Z,26.96
2022-08-07T10:24:31.136Z,27.89
2022-08-07T10:27:11.415Z,26.66
2022-08-07T10:29:56.456Z,26.52
2022-08-07T10:32:52.773Z,25.65
2022-08-07T10:35:55.307Z,24.32
2022-08-07T10:38:46.392Z,25.74
2022-08-07T10:41:51.652Z,25.70
2022-08-07T10:44:28.499Z,25.81
2022-08-07T10:47:26.830Z,26.26
2022-08-07T10:50:15.146Z,25.64
2022-08-07T10:52:51.869Z,24.71
2022-08-07T10:55:36.805Z,25.33
2022-08-07T10:58:40.685Z,25.15
2022-08-07T11:01:23.705Z,23.46
2022-08-07T11:04:11.172Z,25.20
2022-08-07T11:06:56.518Z,22.98
2022-08-07T11:10:09.237Z,24.97
2022-08-07T11:12:31.655Z,25.33
2022-08-07T11:15:14.796Z,24.47
2022-08-07T11:17:50.501Z,23.04
2022-08-07T11:20:27.255Z,23.49
2022-08-07T11:23:01.376Z,23.23
2022-08-07T11:25:42.241Z,25.05
2022-08-07T11:28:16.727Z,23.91
2022-08-07T11:30:53.329Z,23.24
2022-08-07T11:33:48.684Z,23.07
2022-08-07T11:36:35.640Z,23.51
2022-08-07T11:39:10.668Z,22.96
2022-08-07T11:42:02.114Z,23.42
2022-08-07T11:44:39.454Z,24.24
2022-08-07T11:47:39.172Z,23.30
2022-08-07T11:50:32.604Z,24.26
2022-08-07T11:53:15.684Z,24.68
2022-08-07T11:56:26.884Z,26.17
2022-08-07T11:59:22.208Z,25.19
2022-08-07T12:02:04.099Z,24.50
2022-08-07T12:05:00.850Z,25.31
2022-08-07T12:07:38.759Z,24.43
2022-08-07T12:10:12.586Z,23.87
2022-08-07T12:12:44.807Z,22.94
2022-08-07T12:15:35.413Z,20.19
2022-08-07T12:18:11.433Z,19.30
2022-08-07T12:20:46.281Z,19.62
2022-08-07T12:24:06.000Z,20.25
2022-08-07T12:26:28.625Z,19.70
2022-08-07T12:29:05.096Z,17.19
2022-08-07T12:31:52.737Z,17.04
2022-08-07T12:34:27.880Z,17.71
2022-08-07T12:36:57.525Z,18.47
2022-08-07T12:39:43.933Z,20.04
2022-08-07T12:42:27.367Z,18.46
2022-08-07T12:44:57.717Z,18.40
2022-08-07T12:47:31.853Z,18.25
2022-08-07T12:50:39.261Z,17.28
2022-08-07T12:52:58.677Z,16.33
2022-08-07T12:55:40.801Z,16.57
2022-08-07T12:58:13.967Z,16.75
2022-08-07T13:01:05.638Z,19.22
2022-08-07T13:04:02.773Z,16.30
2022-08-07T13:08:11.613Z,17.64
2022-08-07T13:10:29.122Z,18.08
2022-08-07T13:13:48.734Z,15.64
2022-08-07T13:16:12.336Z,16.28
2022-08-07T13:18:49.339Z,15.94
2022-08-07T13:21:37.656Z,16.87
2022-08-07T13:24:13.447Z,16.09
2022-08-07T13:26:46.049Z,15.73
2022-08-07T13:29:18.131Z,16.73
2022-08-07T13:31:57.236Z,17.72
2022-08-07T13:34:37.744Z,19.34
2022-08-07T13:37:20.563Z,17.87
2022-08-07T13:40:35.413Z,19.60
2022-08-07T13:42:50.127Z,18.42
2022-08-07T13:46:06.802Z,18.71
2022-08-07T13:48:10.633Z,16.18
2022-08-07T13:51:00.480Z,18.13
2022-08-07T13:54:00.160Z,19.36
2022-08-07T13:56:36.293Z,18.05
2022-08-07T13:59:13.034Z,17.93
2022-08-07T14:01:51.600Z,16.57
2022-08-07T14:04:29.793Z,17.87
2022-08-07T14:07:09.740Z,16.81
2022-08-07T14:10:02.375Z,17.43
2022-08-07T14:12:41.389Z,16.55
2022-08-07T14:15:22.300Z,18.50
2022-08-07T14:18:24.041Z,17.68
2022-08-07T14:20:48.855Z,17.86
2022-08-07T14:23:59.431Z,18.67
2022-08-07T14:26:28.502Z,17.31
2022-08-07T14:29:02.929Z,17.40
2022-08-07T14:31:42.298Z,16.32
2022-08-07T14:34:19.934Z,16.29
2022-08-07T14:36:55.932Z,19.78
2022-08-07T14:42:20.482Z,21.90
2022-08-07T14:44:53.722Z,19.65
2022-08-07T14:47:23.210Z,18.66
2022-08-07T14:49:59.255Z,20.24
2022-08-07T14:55:17.681Z,21.80
2022-08-07T14:57:58.812Z,21.97
2022-08-07T15:00:31.046Z,24.22
2022-08-07T15:02:59.934Z,22.00
2022-08-07T15:05:30.624Z,23.51
2022-08-07T15:08:01.442Z,22.75
2022-08-07T15:10:30.463Z,22.93
2022-08-07T15:13:01.513Z,22.11
2022-08-07T15:15:38.514Z,22.00
2022-08-07T15:18:14.511Z,22.96
2022-08-07T15:21:44.312Z,24.02
2022-08-07T15:25:16.168Z,23.39
2022-08-07T15:26:49.027Z,21.87
2022-08-07T15:32:11.782Z,23.46
2022-08-07T15:34:50.681Z,24.17
2022-08-07T15:38:04.861Z,25.60
2022-08-07T15:43:53.823Z,24.88
2022-08-07T15:46:31.902Z,24.84
2022-08-07T15:54:34.282Z,22.41
2022-08-07T15:57:03.415Z,22.78
2022-08-07T15:59:39.919Z,23.11
2022-08-07T16:02:15.272Z,22.50
2022-08-07T16:04:44.187Z,23.58
2022-08-07T16:08:31.177Z,24.06
2022-08-07T16:10:14.294Z,23.55
2022-08-07T16:13:01.125Z,24.38
2022-08-07T16:15:55.344Z,24.90
2022-08-07T16:18:49.465Z,24.26
2022-08-07T16:22:01.156Z,23.85
2022-08-07T16:24:35.090Z,24.47
2022-08-07T16:27:18.039Z,23.63
2022-08-07T16:30:28.990Z,22.16
2022-08-07T16:33:00.206Z,23.63
2022-08-07T16:35:58.387Z,25.00
2022-08-07T16:39:00.466Z,24.58
2022-08-07T16:41:41.504Z,23.65
2022-08-07T16:44:46.367Z,22.32
2022-08-07T16:47:51.640Z,22.96
2022-08-07T16:50:38.878Z,22.41
2022-08-07T16:53:48.176Z,23.58
2022-08-07T16:56:21.579Z,21.62
2022-08-07T16:59:14.680Z,20.50
2022-08-07T17:01:53.848Z,19.12
2022-08-07T17:04:34.510Z,18.40
2022-08-07T17:07:10.713Z,18.47
2022-08-07T17:10:07.504Z,18.15
2022-08-07T17:12:46.401Z,19.18
2022-08-07T17:15:20.037Z,19.80
2022-08-07T17:18:00.022Z,19.19
2022-08-07T17:20:33.107Z,20.58
2022-08-07T17:23:08.630Z,19.94
2022-08-07T17:25:54.749Z,18.02
2022-08-07T17:28:31.329Z,16.83
2022-08-07T17:31:16.061Z,17.94
2022-08-07T17:34:15.355Z,17.51
2022-08-07T17:36:57.868Z,18.93
2022-08-07T17:39:53.005Z,19.38
2022-08-07T17:42:33.062Z,20.07
2022-08-07T17:45:05.936Z,20.01
2022-08-07T17:47:54.410Z,20.61
2022-08-07T17:50:30.825Z,19.78
2022-08-07T17:53:02.044Z,20.30
2022-08-07T17:55:54.905Z,20.10
2022-08-07T17:58:34.174Z,21.83
2022-08-07T18:01:21.187Z,22.60
2022-08-07T18:04:06.803Z,23.22
2022-08-07T18:06:43.114Z,24.18
2022-08-07T18:09:17.828Z,23.22
2022-08-07T18:12:19.618Z,24.78
2022-08-07T18:15:01.807Z,24.54
2022-08-07T18:18:45.242Z,25.15
2022-08-07T18:21:08.956Z,25.34
2022-08-07T18:23:43.400Z,25.89
2022-08-07T18:26:16.366Z,26.92
2022-08-07T18:29:00.362Z,27.32
2022-08-07T18:31:40.597Z,27.62
2022-08-07T18:34:39.210Z,27.92
2022-08-07T18:38:58.479Z,28.33
2022-08-07T18:40:42.517Z,28.04
2022-08-07T18:43:15.063Z,27.70
2022-08-07T18:46:24.702Z,27.65
2022-08-07T18:50:32.923Z,27.89
2022-08-07T18:52:33.895Z,28.45
2022-08-07T18:54:32.056Z,28.08
2022-08-07T18:57:31.016Z,27.79
2022-08-07T19:00:33.521Z,27.66
2022-08-07T19:03:00.692Z,28.82
2022-08-07T19:06:03.651Z,29.38
2022-08-07T19:08:26.966Z,30.29
2022-08-07T19:11:00.736Z,30.15
2022-08-07T19:13:38.527Z,29.71
2022-08-07T19:17:01.494Z,29.56
2022-08-07T19:19:14.744Z,29.36
2022-08-07T19:21:56.898Z,29.75
2022-08-07T19:24:43.576Z,30.13
2022-08-07T19:28:28.569Z,30.39
2022-08-07T19:31:05.189Z,30.16
2022-08-07T19:32:59.717Z,29.94
2022-08-07T19:35:33.537Z,29.86
2022-08-07T19:38:15.826Z,30.35
2022-08-07T19:40:50.270Z,30.45
2022-08-07T19:43:21.694Z,30.47
2022-08-07T19:46:15.760Z,31.52
2022-08-07T19:48:53.520Z,31.67
2022-08-07T19:51:50.450Z,31.55
2022-08-07T19:54:35.260Z,32.30
2022-08-07T19:58:02.615Z,31.99
2022-08-07T19:59:50.762Z,31.86
2022-08-07T20:02:28.758Z,32.52
2022-08-07T20:04:57.227Z,32.36
2022-08-07T20:07:47.201Z,32.08
2022-08-07T20:10:35.816Z,33.90
2022-08-07T20:13:15.738Z,33.54
2022-08-07T20:15:51.331Z,32.74
2022-08-07T20:18:32.958Z,32.55
2022-08-07T20:21:21.989Z,34.66
2022-08-07T20:23:54.928Z,35.16
2022-08-07T20:26:32.283Z,33.73
2022-08-07T20:29:10.710Z,33.44
2022-08-07T20:31:52.320Z,35.98
2022-08-07T20:34:48.852Z,36.11
2022-08-07T20:37:10.382Z,35.08
2022-08-07T20:40:02.487Z,35.50
2022-08-07T20:42:33.362Z,35.99
2022-08-07T20:45:02.078Z,35.27
2022-08-07T20:47:56.223Z,35.25
2022-08-07T20:50:24.380Z,36.45
2022-08-07T20:52:52.879Z,37.48
2022-08-07T20:55:23.600Z,38.23
2022-08-07T20:58:02.421Z,38.88
2022-08-07T21:00:42.608Z,39.09
2022-08-07T21:03:14.151Z,38.24
2022-08-07T21:05:54.542Z,36.91
2022-08-07T21:08:36.511Z,36.61
2022-08-07T21:11:16.977Z,36.83
2022-08-07T21:14:20.210Z,39.45
2022-08-07T21:16:46.773Z,40.79
2022-08-07T21:19:32.310Z,41.29
2022-08-07T21:22:19.154Z,39.68
2022-08-07T21:25:04.737Z,38.95
2022-08-07T21:27:55.696Z,39.61
2022-08-07T21:30:36.390Z,39.24
2022-08-07T21:33:13.716Z,39.29
2022-08-07T21:36:04.978Z,39.30
2022-08-07T21:38:46.127Z,42.36
2022-08-07T21:41:21.010Z,42.71
2022-08-07T21:43:57.093Z,43.03
2022-08-07T21:46:31.800Z,44.08
2022-08-07T21:49:15.088Z,43.83
2022-08-07T21:51:54.869Z,42.32
2022-08-07T21:54:29.436Z,41.80
2022-08-07T21:57:31.011Z,42.07
2022-08-07T22:00:08.726Z,41.54
2022-08-07T22:02:42.538Z,40.86
2022-08-07T22:05:22.057Z,45.07
2022-08-07T22:08:03.061Z,43.23
2022-08-07T22:10:35.590Z,43.80
2022-08-07T22:13:05.728Z,45.07
2022-08-07T22:16:42.549Z,44.01
2022-08-07T22:19:07.476Z,43.92
2022-08-07T22:22:05.198Z,44.43
2022-08-07T22:24:34.637Z,45.24
2022-08-07T22:27:10.240Z,45.27
2022-08-07T22:29:48.379Z,45.10
2022-08-07T22:32:21.979Z,45.95
2022-08-07T22:34:54.547Z,44.22
2022-08-07T22:38:02.879Z,43.72
2022-08-07T22:40:24.555Z,42.92
2022-08-07T22:42:59.225Z,43.67
2022-08-07T22:46:21.716Z,43.91
2022-08-07T22:48:55.398Z,44.37
2022-08-07T22:51:44.493Z,44.25
2022-08-07T22:54:37.513Z,44.28
2022-08-07T22:57:17.137Z,43.97
2022-08-07T22:59:50.991Z,44.50
2022-08-07T23:02:41.634Z,44.76
2022-08-07T23:06:09.462Z,44.67
2022-08-07T23:08:46.208Z,45.05
2022-08-07T23:11:41.133Z,43.63
2022-08-07T23:14:28.710Z,43.87
2022-08-07T23:17:37.187Z,44.10
2022-08-07T23:20:51.121Z,44.00
2022-08-07T23:24:05.291Z,44.20
2022-08-07T23:26:26.216Z,45.21
2022-08-07T23:29:43.151Z,45.52
2022-08-07T23:34:22.385Z,46.97
2022-08-07T23:35:16.719Z,46.41
2022-08-07T23:38:19.358Z,46.12
2022-08-07T23:41:33.381Z,46.66
2022-08-07T23:44:16.483Z,48.93
2022-08-07T23:46:58.584Z,47.67
2022-08-07T23:49:53.590Z,48.43
2022-08-07T23:53:05.949Z,47.92
2022-08-07T23:55:52.962Z,49.03
2022-08-07T23:58:18.701Z,48.66
